createdAt,value
2022-09-28T00:00:47.973Z,42.31
2022-09-28T00:03:20.257Z,42.03
2022-09-28T00:05:50.942Z,42.13
2022-09-28T00:08:27.895Z,42.17
2022-09-28T00:11:05.537Z,42.53
2022-09-28T00:13:35.742Z,42.31
2022-09-28T00:16:07.965Z,42.44
2022-09-28T00:18:38.001Z,42.47
2022-09-28T00:21:13.586Z,42.37
2022-09-28T00:24:01.390Z,42.29
2022-09-28T00:26:38.475Z,42.43
2022-09-28T00:29:17.566Z,42.36
2022-09-28T00:31:52.681Z,42.10
2022-09-28T00:34:31.818Z,42.25
2022-09-28T00:37:09.372Z,42.41
2022-09-28T00:39:43.413Z,42.50
2022-09-28T00:42:26.716Z,42.31
2022-09-28T00:45:00.100Z,42.50
2022-09-28T00:48:11.164Z,42.51
2022-09-28T00:50:43.108Z,42.13
2022-09-28T00:53:27.898Z,42.08
2022-09-28T00:56:15.108Z,42.05
2022-09-28T00:58:50.075Z,42.33
2022-09-28T01:01:23.333Z,42.40
2022-09-28T01:04:01.545Z,41.75
2022-09-28T01:06:38.472Z,41.98
2022-09-28T01:09:15.748Z,41.81
2022-09-28T01:11:50.792Z,41.47
2022-09-28T01:14:29.099Z,41.02
2022-09-28T01:17:36.737Z,41.11
2022-09-28T01:20:34.044Z,40.97
2022-09-28T01:23:33.190Z,41.24
2022-09-28T01:26:38.061Z,40.65
2022-09-28T01:29:44.183Z,40.80
2022-09-28T01:32:26.639Z,40.59
2022-09-28T01:35:03.473Z,40.56
2022-09-28T01:37:52.335Z,40.66
2022-09-28T01:40:33.154Z,40.60
2022-09-28T01:43:24.710Z,40.30
2022-09-28T01:46:10.560Z,40.09
2022-09-28T01:49:27.889Z,40.15
2022-09-28T01:52:09.178Z,40.19
2022-09-28T01:55:22.168Z,40.30
2022-09-28T01:58:06.352Z,40.96
2022-09-28T02:00:41.788Z,40.79
2022-09-28T02:03:19.813Z,41.32
2022-09-28T02:06:05.929Z,41.32
2022-09-28T02:08:53.961Z,41.58
2022-09-28T02:11:37.281Z,41.22
2022-09-28T02:14:14.654Z,41.80
2022-09-28T02:16:50.958Z,41.41
2022-09-28T02:19:34.008Z,41.74
2022-09-28T02:22:25.777Z,41.61
2022-09-28T02:25:30.111Z,41.93
2022-09-28T02:28:08.817Z,41.61
2022-09-28T02:30:44.087Z,41.81
2022-09-28T02:33:25.383Z,41.85
2022-09-28T02:36:00.405Z,41.56
2022-09-28T02:38:34.813Z,41.66
2022-09-28T02:41:40.717Z,41.48
2022-09-28T02:44:40.464Z,41.92
2022-09-28T02:47:29.683Z,41.47
2022-09-28T02:50:29.110Z,41.47
2022-09-28T02:53:08.576Z,41.63
2022-09-28T02:55:55.566Z,41.82
2022-09-28T02:58:47.935Z,41.54
2022-09-28T03:01:38.743Z,41.76
2022-09-28T03:04:37.587Z,41.60
2022-09-28T03:07:37.066Z,41.86
2022-09-28T03:10:22.238Z,41.82
2022-09-28T03:12:56.645Z,41.85
2022-09-28T03:15:38.124Z,42.04
2022-09-28T03:18:07.936Z,41.71
2022-09-28T03:20:38.046Z,41.55
2022-09-28T03:23:24.386Z,41.60
2022-09-28T03:26:01.064Z,42.01
2022-09-28T03:28:31.026Z,42.10
2022-09-28T03:31:12.895Z,42.24
2022-09-28T03:33:45.746Z,41.69
2022-09-28T03:36:17.687Z,42.10
2022-09-28T03:38:55.822Z,42.02
2022-09-28T03:41:30.065Z,42.05
2022-09-28T03:44:03.571Z,41.65
2022-09-28T03:46:36.138Z,41.91
2022-09-28T03:49:10.427Z,41.89
2022-09-28T03:51:43.959Z,41.57
2022-09-28T03:54:13.516Z,42.07
2022-09-28T03:56:53.287Z,41.73
2022-09-28T03:59:26.891Z,42.10
2022-09-28T04:02:00.228Z,42.13
2022-09-28T04:04:33.953Z,41.78
2022-09-28T04:07:04.408Z,42.07
2022-09-28T04:09:37.607Z,41.87
2022-09-28T04:12:09.848Z,42.06
2022-09-28T04:14:40.209Z,41.83
2022-09-28T04:17:12.794Z,41.93
2022-09-28T04:19:48.706Z,41.64
2022-09-28T04:22:30.995Z,41.96
2022-09-28T04:25:07.647Z,41.74
2022-09-28T04:27:58.693Z,41.72
2022-09-28T04:30:29.555Z,41.85
2022-09-28T04:33:03.134Z,41.64
2022-09-28T04:35:45.112Z,41.84
2022-09-28T04:38:41.486Z,41.64
2022-09-28T04:41:12.334Z,41.60
2022-09-28T04:43:45.847Z,41.90
2022-09-28T04:46:19.526Z,41.79
2022-09-28T04:49:01.436Z,41.47
2022-09-28T04:52:03.753Z,41.84
2022-09-28T04:54:35.845Z,41.85
2022-09-28T04:57:07.062Z,41.58
2022-09-28T04:59:39.788Z,42.02
2022-09-28T05:02:15.460Z,41.74
2022-09-28T05:05:49.058Z,42.12
2022-09-28T05:08:48.618Z,41.75
2022-09-28T05:11:21.400Z,41.71
2022-09-28T05:13:54.514Z,42.02
2022-09-28T05:16:27.992Z,41.62
2022-09-28T05:19:18.906Z,41.73
2022-09-28T05:21:53.008Z,41.51
2022-09-28T05:24:29.683Z,42.03
2022-09-28T05:26:57.463Z,42.07
2022-09-28T05:29:32.200Z,41.73
2022-09-28T05:32:40.468Z,41.81
2022-09-28T05:35:35.502Z,41.76
2022-09-28T05:38:11.341Z,41.72
2022-09-28T05:40:54.291Z,42.01
2022-09-28T05:43:27.459Z,41.71
2022-09-28T05:46:07.800Z,42.06
2022-09-28T05:48:45.215Z,41.96
2022-09-28T05:51:21.532Z,41.96
2022-09-28T05:53:50.109Z,42.10
2022-09-28T05:56:20.172Z,42.36
2022-09-28T05:58:58.497Z,42.15
2022-09-28T06:01:40.522Z,42.21
2022-09-28T06:04:22.582Z,41.88
2022-09-28T06:06:55.078Z,41.95
2022-09-28T06:09:28.810Z,42.32
2022-09-28T06:12:22.049Z,41.79
2022-09-28T06:15:02.854Z,40.73
2022-09-28T06:17:39.960Z,40.70
2022-09-28T06:20:31.412Z,40.63
2022-09-28T06:23:16.703Z,40.28
2022-09-28T06:25:48.192Z,39.45
2022-09-28T06:28:17.780Z,37.30
2022-09-28T06:30:52.091Z,36.38
2022-09-28T06:33:20.833Z,34.34
2022-09-28T06:35:52.174Z,34.39
2022-09-28T06:38:23.806Z,33.98
2022-09-28T06:40:57.139Z,33.57
2022-09-28T06:43:34.145Z,32.21
2022-09-28T06:46:17.469Z,30.92
2022-09-28T06:48:56.117Z,32.27
2022-09-28T06:52:05.082Z,30.54
2022-09-28T06:54:55.809Z,31.82
2022-09-28T06:57:41.091Z,31.18
2022-09-28T07:00:13.225Z,30.67
2022-09-28T07:02:46.960Z,31.01
2022-09-28T07:05:37.270Z,30.97
2022-09-28T07:08:29.177Z,31.51
2022-09-28T07:11:27.336Z,31.54
2022-09-28T07:14:46.801Z,31.25
2022-09-28T07:17:17.787Z,30.68
2022-09-28T07:19:53.975Z,30.05
2022-09-28T07:22:42.188Z,31.72
2022-09-28T07:25:19.684Z,31.36
2022-09-28T07:28:03.167Z,30.74
2022-09-28T07:30:47.188Z,30.49
2022-09-28T07:33:20.391Z,30.35
2022-09-28T07:35:57.344Z,29.41
2022-09-28T07:38:28.966Z,28.83
2022-09-28T07:41:15.487Z,30.37
2022-09-28T07:43:54.887Z,30.36
2022-09-28T07:46:28.555Z,30.55
2022-09-28T07:49:12.472Z,30.85
2022-09-28T07:52:18.775Z,30.37
2022-09-28T07:55:11.647Z,30.94
2022-09-28T07:58:01.252Z,30.14
2022-09-28T08:01:00.381Z,31.44
2022-09-28T08:03:29.152Z,31.84
2022-09-28T08:06:03.633Z,32.52
2022-09-28T08:08:36.296Z,32.88
2022-09-28T08:11:10.733Z,33.69
2022-09-28T08:13:53.025Z,34.37
2022-09-28T08:16:43.924Z,34.47
2022-09-28T08:19:25.668Z,34.39
2022-09-28T08:22:05.223Z,34.57
2022-09-28T08:24:39.041Z,33.80
2022-09-28T08:27:12.684Z,33.79
2022-09-28T08:29:46.650Z,33.48
2022-09-28T08:32:42.676Z,33.98
2022-09-28T08:36:04.709Z,35.00
2022-09-28T08:38:59.241Z,35.58
2022-09-28T08:42:01.096Z,35.54
2022-09-28T08:45:18.100Z,35.26
2022-09-28T08:48:34.188Z,35.60
2022-09-28T08:51:42.477Z,35.28
2022-09-28T08:55:05.444Z,35.73
2022-09-28T08:57:54.331Z,35.49
2022-09-28T09:00:59.881Z,35.89
2022-09-28T09:03:44.954Z,35.07
2022-09-28T09:06:51.449Z,36.49
2022-09-28T09:10:16.638Z,36.32
2022-09-28T09:13:17.643Z,36.50
2022-09-28T09:15:58.808Z,36.05
2022-09-28T09:19:02.328Z,35.73
2022-09-28T09:22:27.279Z,35.27
2022-09-28T09:25:20.527Z,35.31
2022-09-28T09:28:27.702Z,35.19
2022-09-28T09:31:22.809Z,35.18
2022-09-28T09:34:24.828Z,35.17
2022-09-28T09:37:59.765Z,35.13
2022-09-28T09:44:19.381Z,35.19
2022-09-28T09:47:44.501Z,34.53
2022-09-28T09:50:40.734Z,34.71
2022-09-28T09:53:38.607Z,33.87
2022-09-28T09:56:44.617Z,34.51
2022-09-28T09:59:44.731Z,35.26
2022-09-28T10:02:45.162Z,33.60
2022-09-28T10:05:37.932Z,33.87
2022-09-28T10:08:09.391Z,34.25
2022-09-28T10:11:08.660Z,34.76
2022-09-28T10:13:44.813Z,34.41
2022-09-28T10:16:40.181Z,34.46
2022-09-28T10:19:14.869Z,34.69
2022-09-28T10:22:10.853Z,34.40
2022-09-28T10:24:51.350Z,34.66
2022-09-28T10:27:27.555Z,34.78
2022-09-28T10:30:00.864Z,34.36
2022-09-28T10:32:44.865Z,34.98
2022-09-28T10:35:29.939Z,35.16
2022-09-28T10:38:05.642Z,34.95
2022-09-28T10:41:12.074Z,34.77
2022-09-28T10:43:57.428Z,34.44
2022-09-28T10:46:29.524Z,34.27
2022-09-28T10:49:03.703Z,33.91
2022-09-28T10:51:48.291Z,33.77
2022-09-28T10:54:29.505Z,34.82
2022-09-28T10:57:06.283Z,34.37
2022-09-28T10:59:50.577Z,34.78
2022-09-28T11:02:38.556Z,34.73
2022-09-28T11:05:22.168Z,35.26
2022-09-28T11:07:59.423Z,35.16
2022-09-28T11:10:34.771Z,35.11
2022-09-28T11:13:10.998Z,35.44
2022-09-28T11:15:47.018Z,35.61
2022-09-28T11:18:32.573Z,36.13
2022-09-28T11:21:18.298Z,35.80
2022-09-28T11:24:06.495Z,35.92
2022-09-28T11:26:49.912Z,36.14
2022-09-28T11:29:43.411Z,36.20
2022-09-28T11:32:47.107Z,35.97
2022-09-28T11:35:32.874Z,36.10
2022-09-28T11:38:19.269Z,35.45
2022-09-28T11:41:12.350Z,36.42
2022-09-28T11:44:08.604Z,36.82
2022-09-28T11:46:58.576Z,37.27
2022-09-28T11:49:40.261Z,37.29
2022-09-28T11:52:25.444Z,36.86
2022-09-28T11:55:10.591Z,36.61
2022-09-28T11:58:01.722Z,36.67
2022-09-28T12:00:48.582Z,37.08
2022-09-28T12:03:46.495Z,36.88
2022-09-28T12:06:33.272Z,36.88
2022-09-28T12:09:19.938Z,36.76
2022-09-28T12:12:32.713Z,36.52
2022-09-28T12:15:42.153Z,36.38
2022-09-28T12:18:27.502Z,35.99
2022-09-28T12:21:19.399Z,36.61
2022-09-28T12:23:55.684Z,35.48
2022-09-28T12:26:49.180Z,36.15
2022-09-28T12:29:29.825Z,36.22
2022-09-28T12:32:30.421Z,36.27
2022-09-28T12:35:13.748Z,35.80
2022-09-28T12:38:16.599Z,35.78
2022-09-28T12:41:17.019Z,35.66
2022-09-28T12:44:13.401Z,35.33
2022-09-28T12:47:02.297Z,35.18
2022-09-28T12:53:05.648Z,35.17
2022-09-28T12:55:59.022Z,35.06
2022-09-28T12:59:00.665Z,34.87
2022-09-28T13:02:12.366Z,34.85
2022-09-28T13:05:12.920Z,34.39
2022-09-28T13:08:00.832Z,34.34
2022-09-28T13:10:57.869Z,34.46
2022-09-28T13:13:59.889Z,34.01
2022-09-28T13:16:51.298Z,34.03
2022-09-28T13:19:48.943Z,34.11
2022-09-28T13:22:44.405Z,34.25
2022-09-28T13:25:22.820Z,34.22
2022-09-28T13:28:13.377Z,35.26
2022-09-28T13:31:02.517Z,35.77
2022-09-28T13:33:41.237Z,36.06
2022-09-28T13:36:29.465Z,36.11
2022-09-28T13:39:03.656Z,36.32
2022-09-28T13:41:40.599Z,36.14
2022-09-28T13:44:36.753Z,36.37
2022-09-28T13:47:26.715Z,36.14
2022-09-28T13:50:13.354Z,36.37
2022-09-28T13:52:58.163Z,36.53
2022-09-28T13:55:40.923Z,36.63
2022-09-28T13:58:41.681Z,36.73
2022-09-28T14:01:14.769Z,36.57
2022-09-28T14:04:25.355Z,36.66
2022-09-28T14:07:19.790Z,37.68
2022-09-28T14:10:51.234Z,37.76
2022-09-28T14:14:01.157Z,37.73
2022-09-28T14:16:38.686Z,37.06
2022-09-28T14:19:15.801Z,36.44
2022-09-28T14:21:55.507Z,37.09
2022-09-28T14:24:42.139Z,36.96
2022-09-28T14:27:38.454Z,37.64
2022-09-28T14:30:17.810Z,36.94
2022-09-28T14:33:00.104Z,36.92
2022-09-28T14:35:49.321Z,36.28
2022-09-28T14:38:49.531Z,36.78
2022-09-28T14:41:51.196Z,36.24
2022-09-28T14:44:28.032Z,36.02
2022-09-28T14:47:27.282Z,35.58
2022-09-28T14:50:24.807Z,36.12
2022-09-28T14:53:10.672Z,35.74
2022-09-28T14:55:51.056Z,36.45
2022-09-28T14:58:27.876Z,36.16
2022-09-28T15:01:32.075Z,35.12
2022-09-28T15:04:15.294Z,36.14
2022-09-28T15:06:58.543Z,36.43
2022-09-28T15:09:32.606Z,36.31
2022-09-28T15:12:28.448Z,36.28
2022-09-28T15:15:08.716Z,37.05
2022-09-28T15:17:46.324Z,36.47
2022-09-28T15:20:26.757Z,34.31
2022-09-28T15:23:04.474Z,34.01
2022-09-28T15:25:39.301Z,32.35
2022-09-28T15:28:34.131Z,32.18
2022-09-28T15:31:21.502Z,32.75
2022-09-28T15:34:15.935Z,32.73
2022-09-28T15:36:48.478Z,32.85
2022-09-28T15:39:39.828Z,33.16
2022-09-28T15:42:13.788Z,33.70
2022-09-28T15:45:06.968Z,34.29
2022-09-28T15:47:40.283Z,34.50
2022-09-28T15:50:21.877Z,35.06
2022-09-28T15:52:53.111Z,35.14
2022-09-28T15:55:31.191Z,33.68
2022-09-28T15:58:18.250Z,33.55
2022-09-28T16:00:52.878Z,31.82
2022-09-28T16:03:32.698Z,31.51
2022-09-28T16:06:13.017Z,31.58
2022-09-28T16:08:46.149Z,29.89
2022-09-28T16:11:28.059Z,30.32
2022-09-28T16:14:21.469Z,31.38
2022-09-28T16:16:59.953Z,31.84
2022-09-28T16:19:45.949Z,32.93
2022-09-28T16:22:28.713Z,34.47
2022-09-28T16:25:11.064Z,34.99
2022-09-28T16:27:50.529Z,35.80
2022-09-28T16:30:26.809Z,36.01
2022-09-28T16:33:36.898Z,35.72
2022-09-28T16:36:19.140Z,36.20
2022-09-28T16:38:55.042Z,36.30
2022-09-28T16:41:31.948Z,37.07
2022-09-28T16:44:17.387Z,37.47
2022-09-28T16:46:47.051Z,37.36
2022-09-28T16:49:34.140Z,37.68
2022-09-28T16:52:12.095Z,37.79
2022-09-28T16:55:17.649Z,37.87
2022-09-28T16:57:59.503Z,37.70
2022-09-28T17:00:35.683Z,38.15
2022-09-28T17:03:20.212Z,38.52
2022-09-28T17:05:56.633Z,38.43
2022-09-28T17:08:25.277Z,38.75
2022-09-28T17:11:24.547Z,38.42
2022-09-28T17:14:03.816Z,38.60
2022-09-28T17:17:07.317Z,39.07
2022-09-28T17:19:44.512Z,39.17
2022-09-28T17:22:22.845Z,39.14
2022-09-28T17:24:58.684Z,39.08
2022-09-28T17:27:34.811Z,39.44
2022-09-28T17:30:09.912Z,39.35
2022-09-28T17:32:50.793Z,39.16
2022-09-28T17:35:33.204Z,39.32
2022-09-28T17:38:08.561Z,39.61
2022-09-28T17:40:48.358Z,39.55
2022-09-28T17:43:24.024Z,39.59
2022-09-28T17:45:55.822Z,39.59
2022-09-28T17:48:33.750Z,39.31
2022-09-28T17:51:10.236Z,39.25
2022-09-28T17:53:40.501Z,39.55
2022-09-28T17:56:15.950Z,39.64
2022-09-28T17:58:50.657Z,39.50
2022-09-28T18:01:34.188Z,39.78
2022-09-28T18:04:13.224Z,39.40
2022-09-28T18:07:03.940Z,39.63
2022-09-28T18:09:42.848Z,39.57
2022-09-28T18:12:19.357Z,39.60
2022-09-28T18:14:53.347Z,39.67
2022-09-28T18:17:29.473Z,39.69
2022-09-28T18:20:09.951Z,39.68
2022-09-28T18:22:42.737Z,39.78
2022-09-28T18:25:24.624Z,39.94
2022-09-28T18:28:02.996Z,39.79
2022-09-28T18:30:40.967Z,39.90
2022-09-28T18:33:17.103Z,39.72
2022-09-28T18:35:59.732Z,40.03
2022-09-28T18:38:40.451Z,39.62
2022-09-28T18:41:24.112Z,39.74
2022-09-28T18:44:01.052Z,39.82
2022-09-28T18:46:47.387Z,39.67
2022-09-28T18:49:23.560Z,39.86
2022-09-28T18:52:04.864Z,39.69
2022-09-28T18:54:43.712Z,39.99
2022-09-28T18:57:17.730Z,39.92
2022-09-28T18:59:54.723Z,39.92
2022-09-28T19:02:25.836Z,39.73
2022-09-28T19:05:09.419Z,40.14
2022-09-28T19:07:48.640Z,39.87
2022-09-28T19:10:23.055Z,40.14
2022-09-28T19:13:06.367Z,40.20
2022-09-28T19:15:40.283Z,40.19
2022-09-28T19:18:21.357Z,40.01
2022-09-28T19:20:57.183Z,40.02
2022-09-28T19:23:30.681Z,39.92
2022-09-28T19:26:06.957Z,40.06
2022-09-28T19:28:46.010Z,39.83
2022-09-28T19:31:29.093Z,39.92
2022-09-28T19:34:02.405Z,40.06
2022-09-28T19:36:38.372Z,39.95
2022-09-28T19:39:15.307Z,40.37
2022-09-28T19:41:54.411Z,40.34
2022-09-28T19:44:36.514Z,40.42
2022-09-28T19:47:17.339Z,40.07
2022-09-28T19:49:55.967Z,40.02
2022-09-28T19:52:38.103Z,40.24
2022-09-28T19:55:19.149Z,40.19
2022-09-28T19:57:58.934Z,40.33
2022-09-28T20:00:35.141Z,40.03
2022-09-28T20:03:13.520Z,40.15
2022-09-28T20:05:46.941Z,39.86
2022-09-28T20:08:31.702Z,40.32
2022-09-28T20:11:13.179Z,40.41
2022-09-28T20:13:52.887Z,39.99
2022-09-28T20:16:27.591Z,39.76
2022-09-28T20:19:07.387Z,40.15
2022-09-28T20:21:43.848Z,40.50
2022-09-28T20:24:17.321Z,39.96
2022-09-28T20:26:50.138Z,40.10
2022-09-28T20:29:38.183Z,40.07
2022-09-28T20:32:17.176Z,40.27
2022-09-28T20:34:58.182Z,40.04
2022-09-28T20:37:31.348Z,39.85
2022-09-28T20:40:07.575Z,40.35
2022-09-28T20:42:42.533Z,40.34
2022-09-28T20:45:24.282Z,40.17
2022-09-28T20:48:00.599Z,40.35
2022-09-28T20:50:41.338Z,40.25
2022-09-28T20:53:18.216Z,40.09
2022-09-28T20:56:14.339Z,40.53
2022-09-28T20:58:55.116Z,40.41
2022-09-28T21:01:36.736Z,40.13
2022-09-28T21:04:14.760Z,40.10
2022-09-28T21:06:48.534Z,39.97
2022-09-28T21:09:30.183Z,39.87
2022-09-28T21:12:12.819Z,39.88
2022-09-28T21:14:49.316Z,39.33
2022-09-28T21:17:27.939Z,39.12
2022-09-28T21:20:06.382Z,39.24
2022-09-28T21:22:43.747Z,39.05
2022-09-28T21:25:19.871Z,38.85
2022-09-28T21:27:50.744Z,38.68
2022-09-28T21:30:31.723Z,38.38
2022-09-28T21:33:10.560Z,38.21
2022-09-28T21:35:46.284Z,38.17
2022-09-28T21:38:22.052Z,37.90
2022-09-28T21:41:02.441Z,37.39
2022-09-28T21:43:40.931Z,37.64
2022-09-28T21:46:17.639Z,37.20
2022-09-28T21:48:53.837Z,37.61
2022-09-28T21:51:33.278Z,37.59
2022-09-28T21:54:06.719Z,37.88
2022-09-28T21:56:45.185Z,37.65
2022-09-28T21:59:23.426Z,37.98
2022-09-28T22:01:59.259Z,38.54
2022-09-28T22:04:29.234Z,39.04
2022-09-28T22:07:03.313Z,39.03
2022-09-28T22:09:39.101Z,39.42
2022-09-28T22:12:17.629Z,39.42
2022-09-28T22:14:54.023Z,39.62
2022-09-28T22:17:24.945Z,40.03
2022-09-28T22:19:58.515Z,39.76
2022-09-28T22:22:32.191Z,39.88
2022-09-28T22:25:13.497Z,39.83
2022-09-28T22:27:54.319Z,40.00
2022-09-28T22:30:30.555Z,39.83
2022-09-28T22:33:06.675Z,40.36
2022-09-28T22:35:42.787Z,40.13
2022-09-28T22:38:16.228Z,40.36
2022-09-28T22:40:58.526Z,40.38
2022-09-28T22:43:37.009Z,40.32
2022-09-28T22:46:27.143Z,40.25
2022-09-28T22:49:12.352Z,40.21
2022-09-28T22:51:48.137Z,40.24
2022-09-28T22:54:23.872Z,40.66
2022-09-28T22:57:00.488Z,40.41
2022-09-28T22:59:27.990Z,40.58
2022-09-28T23:02:06.236Z,40.27
2022-09-28T23:04:47.001Z,40.16
2022-09-28T23:07:21.565Z,40.24
2022-09-28T23:09:59.794Z,40.27
2022-09-28T23:12:42.213Z,40.24
2022-09-28T23:15:21.051Z,40.18
2022-09-28T23:18:00.425Z,40.29
2022-09-28T23:20:38.386Z,40.85
2022-09-28T23:23:16.418Z,40.18
2022-09-28T23:25:49.633Z,40.56
2022-09-28T23:28:39.732Z,40.40
2022-09-28T23:31:17.192Z,40.55
2022-09-28T23:34:09.238Z,40.18
2022-09-28T23:36:44.678Z,40.33
2022-09-28T23:39:23.360Z,40.68
2022-09-28T23:41:54.214Z,40.77
2022-09-28T23:44:31.295Z,40.68
2022-09-28T23:47:04.296Z,40.69
2022-09-28T23:49:36.583Z,40.60
2022-09-28T23:52:15.004Z,40.76
2022-09-28T23:54:48.613Z,40.68
2022-09-28T23:57:29.286Z,40.54
